createdAt,value
2019-02-12T00:00:43.544Z,82.36
2019-02-12T00:03:13.040Z,81.88
2019-02-12T00:05:42.680Z,81.72
2019-02-12T00:08:12.387Z,81.58
2019-02-12T00:10:42.049Z,81.07
2019-02-12T00:13:11.839Z,80.85
2019-02-12T00:15:41.617Z,80.27
2019-02-12T00:18:11.252Z,79.86
2019-02-12T00:20:40.829Z,80.06
2019-02-12T00:23:10.455Z,79.92
2019-02-12T00:25:39.940Z,79.98
2019-02-12T00:28:09.623Z,81.67
2019-02-12T00:30:39.037Z,83.02
2019-02-12T00:33:08.699Z,84.34
2019-02-12T00:35:38.573Z,84.98
2019-02-12T00:38:08.136Z,85.92
2019-02-12T00:40:37.808Z,86.55
2019-02-12T00:43:07.203Z,86.88
2019-02-12T00:45:36.825Z,87.74
2019-02-12T00:48:06.609Z,88.12
2019-02-12T00:50:36.305Z,88.43
2019-02-12T00:53:05.816Z,88.66
2019-02-12T00:55:35.535Z,88.87
2019-02-12T00:58:05.401Z,89.20
2019-02-12T01:00:34.890Z,89.25
2019-02-12T01:03:04.298Z,89.48
2019-02-12T01:05:33.889Z,89.61
2019-02-12T01:08:03.703Z,89.67
2019-02-12T01:10:33.455Z,89.60
2019-02-12T01:13:03.171Z,89.68
2019-02-12T01:15:32.954Z,89.50
2019-02-12T01:18:02.543Z,89.36
2019-02-12T01:20:31.972Z,89.55
2019-02-12T01:23:01.719Z,89.88
2019-02-12T01:25:31.426Z,89.87
2019-02-12T01:28:00.822Z,89.88
2019-02-12T01:30:30.443Z,89.93
2019-02-12T01:33:00.183Z,90.07
2019-02-12T01:35:29.871Z,90.04
2019-02-12T01:37:59.434Z,90.15
2019-02-12T01:40:28.843Z,90.24
2019-02-12T01:42:58.347Z,90.36
2019-02-12T01:45:27.893Z,90.68
2019-02-12T01:47:57.664Z,90.56
2019-02-12T01:50:27.069Z,90.72
2019-02-12T01:52:56.670Z,90.94
2019-02-12T01:55:26.313Z,91.21
2019-02-12T01:57:55.705Z,91.14
2019-02-12T02:00:25.467Z,91.06
2019-02-12T02:02:55.214Z,90.95
2019-02-12T02:05:24.909Z,91.07
2019-02-12T02:07:54.295Z,91.05
2019-02-12T02:10:23.741Z,91.04
2019-02-12T02:12:53.231Z,90.75
2019-02-12T02:15:22.926Z,90.41
2019-02-12T02:17:52.509Z,90.07
2019-02-12T02:20:21.937Z,89.83
2019-02-12T02:22:51.720Z,89.53
2019-02-12T02:25:21.464Z,89.35
2019-02-12T02:27:50.858Z,89.25
2019-02-12T02:30:20.740Z,88.98
2019-02-12T02:32:50.321Z,88.95
2019-02-12T02:35:20.189Z,88.71
2019-02-12T02:37:49.839Z,88.45
2019-02-12T02:40:19.581Z,88.38
2019-02-12T02:42:48.978Z,87.03
2019-02-12T02:45:18.367Z,86.36
2019-02-12T02:47:48.123Z,86.50
2019-02-12T02:50:17.843Z,86.48
2019-02-12T02:52:47.429Z,86.29
2019-02-12T02:55:17.112Z,86.31
2019-02-12T02:57:46.680Z,86.68
2019-02-12T03:00:16.295Z,86.73
2019-02-12T03:02:45.761Z,86.95
2019-02-12T03:05:15.146Z,86.51
2019-02-12T03:07:44.887Z,86.71
2019-02-12T03:10:14.453Z,86.89
2019-02-12T03:12:43.962Z,86.93
2019-02-12T03:15:13.692Z,87.39
2019-02-12T03:17:43.577Z,87.23
2019-02-12T03:20:13.385Z,85.89
2019-02-12T03:22:43.301Z,85.80
2019-02-12T03:25:13.069Z,86.64
2019-02-12T03:27:42.678Z,86.49
2019-02-12T03:30:12.721Z,86.39
2019-02-12T03:32:42.874Z,86.03
2019-02-12T03:35:12.515Z,86.09
2019-02-12T03:37:42.100Z,86.11
2019-02-12T03:40:12.168Z,85.73
2019-02-12T03:42:41.650Z,85.15
2019-02-12T03:45:11.748Z,85.35
2019-02-12T03:47:41.143Z,85.83
2019-02-12T03:50:10.918Z,85.98
2019-02-12T03:52:40.669Z,86.41
2019-02-12T03:55:11.196Z,86.07
2019-02-12T03:57:40.852Z,86.11
2019-02-12T04:00:12.912Z,86.60
2019-02-12T04:03:05.623Z,86.79
2019-02-12T04:05:35.592Z,86.91
2019-02-12T04:08:05.552Z,87.02
2019-02-12T04:10:35.338Z,87.11
2019-02-12T04:13:05.063Z,87.41
2019-02-12T04:15:34.675Z,87.43
2019-02-12T04:18:04.497Z,87.55
2019-02-12T04:20:34.116Z,87.46
2019-02-12T04:23:03.864Z,87.45
2019-02-12T04:25:33.559Z,86.75
2019-02-12T04:28:03.061Z,86.37
2019-02-12T04:30:32.810Z,86.21
2019-02-12T04:33:02.495Z,85.10
2019-02-12T04:35:32.125Z,84.28
2019-02-12T04:38:01.856Z,83.86
2019-02-12T04:40:31.456Z,83.78
2019-02-12T04:43:00.844Z,83.52
2019-02-12T04:45:30.452Z,83.36
2019-02-12T04:48:00.235Z,82.18
2019-02-12T04:50:29.701Z,81.77
2019-02-12T04:52:59.292Z,81.50
2019-02-12T04:55:28.862Z,81.26
2019-02-12T04:57:58.339Z,80.83
2019-02-12T05:00:28.171Z,81.18
2019-02-12T05:02:57.685Z,81.92
2019-02-12T05:05:27.414Z,82.29
2019-02-12T05:07:57.162Z,81.09
2019-02-12T05:10:28.072Z,79.45
2019-02-12T05:12:57.797Z,79.14
2019-02-12T05:15:27.329Z,79.67
2019-02-12T05:17:57.072Z,79.94
2019-02-12T05:20:26.763Z,80.29
2019-02-12T05:22:56.561Z,79.79
2019-02-12T05:25:26.384Z,80.11
2019-02-12T05:27:55.815Z,79.19
2019-02-12T05:30:25.215Z,79.97
2019-02-12T05:32:54.744Z,79.09
2019-02-12T05:35:24.573Z,79.01
2019-02-12T05:37:54.132Z,79.05
2019-02-12T05:40:23.750Z,79.91
2019-02-12T05:42:53.478Z,80.76
2019-02-12T05:45:23.164Z,79.93
2019-02-12T05:47:52.805Z,78.56
2019-02-12T05:50:22.197Z,77.59
2019-02-12T05:52:54.417Z,77.45
2019-02-12T05:55:23.246Z,76.94
2019-02-12T05:57:52.727Z,76.81
2019-02-12T06:00:24.624Z,76.83
2019-02-12T06:02:54.297Z,76.73
2019-02-12T06:05:30.005Z,76.13
2019-02-12T06:07:59.583Z,76.34
2019-02-12T06:10:29.369Z,74.99
2019-02-12T06:12:58.980Z,74.10
2019-02-12T06:15:28.570Z,72.98
2019-02-12T06:17:58.469Z,72.58
2019-02-12T06:20:28.218Z,72.14
2019-02-12T06:23:03.683Z,70.98
2019-02-12T06:25:28.965Z,70.54
2019-02-12T06:27:58.762Z,71.42
2019-02-12T06:30:28.616Z,70.50
2019-02-12T06:33:06.999Z,70.23
2019-02-12T06:35:29.383Z,70.37
2019-02-12T06:37:59.069Z,70.87
2019-02-12T06:40:28.638Z,68.91
2019-02-12T06:42:58.148Z,69.19
2019-02-12T06:45:27.950Z,68.99
2019-02-12T06:47:57.352Z,68.86
2019-02-12T06:50:26.938Z,68.23
2019-02-12T06:52:56.412Z,66.27
2019-02-12T06:55:26.322Z,66.68
2019-02-12T06:57:55.714Z,66.42
2019-02-12T07:00:25.389Z,67.26
2019-02-12T07:03:48.163Z,67.12
2019-02-12T07:06:30.572Z,66.73
2019-02-12T07:09:30.265Z,66.53
2019-02-12T07:12:35.559Z,67.39
2019-02-12T07:15:46.244Z,67.97
2019-02-12T07:18:55.423Z,67.54
2019-02-12T07:21:40.375Z,65.69
2019-02-12T07:24:31.657Z,65.83
2019-02-12T07:27:51.026Z,66.23
2019-02-12T07:30:56.300Z,66.34
2019-02-12T07:34:08.124Z,65.67
2019-02-12T07:37:17.511Z,62.80
2019-02-12T07:40:52.246Z,62.21
2019-02-12T07:43:55.313Z,61.26
2019-02-12T07:47:10.612Z,60.50
2019-02-12T07:50:15.936Z,60.12
2019-02-12T07:53:30.589Z,59.68
2019-02-12T07:56:18.763Z,59.61
2019-02-12T07:59:23.254Z,59.24
2019-02-12T08:02:48.559Z,59.79
2019-02-12T08:05:54.731Z,58.23
2019-02-12T08:09:17.090Z,58.11
2019-02-12T08:12:19.685Z,57.82
2019-02-12T08:16:00.603Z,57.38
2019-02-12T08:19:07.036Z,56.30
2019-02-12T08:22:17.729Z,57.43
2019-02-12T08:25:20.076Z,58.42
2019-02-12T08:28:45.521Z,58.69
2019-02-12T08:31:45.612Z,57.51
2019-02-12T08:34:50.410Z,59.13
2019-02-12T08:38:03.358Z,56.69
2019-02-12T08:41:21.166Z,56.60
2019-02-12T08:44:31.917Z,57.23
2019-02-12T08:47:26.862Z,58.01
2019-02-12T08:50:13.259Z,56.90
2019-02-12T08:52:57.245Z,55.94
2019-02-12T08:56:05.084Z,55.05
2019-02-12T08:59:39.433Z,54.21
2019-02-12T09:02:51.489Z,53.00
2019-02-12T09:05:54.388Z,53.25
2019-02-12T09:08:46.717Z,52.80
2019-02-12T09:12:05.289Z,53.21
2019-02-12T09:14:52.489Z,51.78
2019-02-12T09:17:50.198Z,50.68
2019-02-12T09:21:08.663Z,49.21
2019-02-12T09:24:04.514Z,49.48
2019-02-12T09:27:11.946Z,48.45
2019-02-12T09:30:12.502Z,47.19
2019-02-12T09:33:25.041Z,46.64
2019-02-12T09:36:34.591Z,42.98
2019-02-12T09:39:31.818Z,41.66
2019-02-12T09:42:33.984Z,38.88
2019-02-12T09:45:32.991Z,39.42
2019-02-12T09:48:38.311Z,37.66
2019-02-12T09:51:43.021Z,35.66
2019-02-12T09:54:44.134Z,36.43
2019-02-12T09:57:42.484Z,35.80
2019-02-12T10:00:52.044Z,37.24
2019-02-12T10:03:59.528Z,38.62
2019-02-12T10:07:01.594Z,39.27
2019-02-12T10:10:23.240Z,38.29
2019-02-12T10:13:22.978Z,37.93
2019-02-12T10:16:31.703Z,37.15
2019-02-12T10:19:37.919Z,36.41
2019-02-12T10:22:46.561Z,38.15
2019-02-12T10:25:32.471Z,39.75
2019-02-12T10:28:49.187Z,40.00
2019-02-12T10:31:30.582Z,41.64
2019-02-12T10:34:00.255Z,41.05
2019-02-12T10:36:29.984Z,43.29
2019-02-12T10:38:59.678Z,43.01
2019-02-12T10:41:29.154Z,44.56
2019-02-12T10:43:58.950Z,44.65
2019-02-12T10:46:28.380Z,43.49
2019-02-12T10:48:57.777Z,43.39
2019-02-12T10:51:27.335Z,43.58
2019-02-12T10:53:57.168Z,44.01
2019-02-12T10:56:26.816Z,43.48
2019-02-12T10:58:56.326Z,44.28
2019-02-12T11:01:25.937Z,45.41
2019-02-12T11:03:55.454Z,45.31
2019-02-12T11:06:24.883Z,45.36
2019-02-12T11:08:54.454Z,44.53
2019-02-12T11:11:24.212Z,45.03
2019-02-12T11:13:54.007Z,44.32
2019-02-12T11:16:23.666Z,44.44
2019-02-12T11:18:53.394Z,42.97
2019-02-12T11:21:22.996Z,43.90
2019-02-12T11:23:52.488Z,42.77
2019-02-12T11:26:21.949Z,43.34
2019-02-12T11:28:51.424Z,42.47
2019-02-12T11:31:21.002Z,42.42
2019-02-12T11:33:50.603Z,43.50
2019-02-12T11:36:20.339Z,43.82
2019-02-12T11:38:50.061Z,43.53
2019-02-12T11:41:19.606Z,44.69
2019-02-12T11:43:49.174Z,45.15
2019-02-12T11:46:18.804Z,44.76
2019-02-12T11:48:48.619Z,44.55
2019-02-12T11:51:18.265Z,45.15
2019-02-12T11:53:47.829Z,44.92
2019-02-12T11:56:17.550Z,43.94
2019-02-12T11:58:48.518Z,44.61
2019-02-12T12:01:21.335Z,44.53
2019-02-12T12:03:51.069Z,43.63
2019-02-12T12:06:20.854Z,44.46
2019-02-12T12:08:50.326Z,44.17
2019-02-12T12:11:19.746Z,44.61
2019-02-12T12:13:49.552Z,44.24
2019-02-12T12:16:19.017Z,44.21
2019-02-12T12:18:48.411Z,44.39
2019-02-12T12:21:17.973Z,44.11
2019-02-12T12:23:47.586Z,44.63
2019-02-12T12:26:17.364Z,45.29
2019-02-12T12:28:47.056Z,43.44
2019-02-12T12:31:16.797Z,44.27
2019-02-12T12:33:46.565Z,43.98
2019-02-12T12:36:16.349Z,44.79
2019-02-12T12:38:45.923Z,43.66
2019-02-12T12:41:15.605Z,44.94
2019-02-12T12:43:45.319Z,45.13
2019-02-12T12:46:15.150Z,44.90
2019-02-12T12:48:44.786Z,44.97
2019-02-12T12:51:14.566Z,44.57
2019-02-12T12:53:43.976Z,44.82
2019-02-12T12:56:13.415Z,45.90
2019-02-12T12:58:43.011Z,45.10
2019-02-12T13:01:12.546Z,45.11
2019-02-12T13:03:42.086Z,45.21
2019-02-12T13:06:11.855Z,45.36
2019-02-12T13:08:41.433Z,45.03
2019-02-12T13:11:11.108Z,45.12
2019-02-12T13:13:40.689Z,44.58
2019-02-12T13:16:10.462Z,45.71
2019-02-12T13:18:40.072Z,46.54
2019-02-12T13:21:09.720Z,45.93
2019-02-12T13:23:39.750Z,44.79
2019-02-12T13:26:09.418Z,45.74
2019-02-12T13:28:39.186Z,45.38
2019-02-12T13:31:08.876Z,46.58
2019-02-12T13:33:38.498Z,47.31
2019-02-12T13:36:08.122Z,47.50
2019-02-12T13:38:38.087Z,47.27
2019-02-12T13:41:07.820Z,47.67
2019-02-12T13:43:37.293Z,46.52
2019-02-12T13:46:07.096Z,46.74
2019-02-12T13:48:36.851Z,46.37
2019-02-12T13:51:06.574Z,46.90
2019-02-12T13:53:36.148Z,45.62
2019-02-12T13:56:05.877Z,45.60
2019-02-12T13:58:35.570Z,45.75
2019-02-12T14:01:05.667Z,45.40
2019-02-12T14:03:35.507Z,44.74
2019-02-12T14:06:05.271Z,45.09
2019-02-12T14:08:34.915Z,44.67
2019-02-12T14:11:04.772Z,45.94
2019-02-12T14:13:34.608Z,45.64
2019-02-12T14:16:04.043Z,46.17
2019-02-12T14:18:33.654Z,45.60
2019-02-12T14:21:03.277Z,46.52
2019-02-12T14:23:32.983Z,46.17
2019-02-12T14:26:02.454Z,46.08
2019-02-12T14:28:32.052Z,46.61
2019-02-12T14:31:01.851Z,46.96
2019-02-12T14:33:31.705Z,46.85
2019-02-12T14:36:01.141Z,46.72
2019-02-12T14:38:30.791Z,46.22
2019-02-12T14:41:00.516Z,46.17
2019-02-12T14:43:30.236Z,47.30
2019-02-12T14:46:01.949Z,47.65
2019-02-12T14:48:31.748Z,46.94
2019-02-12T14:51:01.505Z,47.19
2019-02-12T14:53:31.084Z,47.84
2019-02-12T14:56:00.639Z,47.22
2019-02-12T14:58:30.178Z,46.81
2019-02-12T15:01:00.052Z,46.61
2019-02-12T15:03:29.733Z,46.27
2019-02-12T15:05:59.427Z,47.61
2019-02-12T15:08:29.637Z,47.24
2019-02-12T15:10:59.370Z,47.55
2019-02-12T15:13:28.912Z,47.55
2019-02-12T15:15:58.458Z,47.64
2019-02-12T15:18:28.301Z,48.81
2019-02-12T15:20:58.045Z,47.91
2019-02-12T15:23:27.736Z,48.13
2019-02-12T15:25:57.450Z,47.95
2019-02-12T15:28:27.040Z,48.44
2019-02-12T15:30:57.166Z,47.91
2019-02-12T15:33:27.033Z,47.71
2019-02-12T15:35:56.451Z,49.35
2019-02-12T15:38:26.152Z,49.29
2019-02-12T15:40:56.065Z,49.32
2019-02-12T15:43:26.028Z,48.28
2019-02-12T15:45:55.615Z,49.02
2019-02-12T15:48:24.992Z,48.60
2019-02-12T15:50:54.792Z,48.77
2019-02-12T15:53:24.454Z,49.81
2019-02-12T15:55:54.037Z,50.31
2019-02-12T15:58:24.264Z,49.37
2019-02-12T16:00:53.856Z,49.66
2019-02-12T16:03:23.253Z,49.72
2019-02-12T16:05:54.654Z,50.17
2019-02-12T16:08:24.252Z,50.27
2019-02-12T16:10:55.170Z,49.35
2019-02-12T16:13:25.650Z,49.72
2019-02-12T16:15:55.481Z,50.29
2019-02-12T16:18:25.226Z,50.47
2019-02-12T16:20:54.687Z,49.91
2019-02-12T16:23:24.072Z,50.55
2019-02-12T16:25:59.372Z,50.40
2019-02-12T16:28:25.236Z,50.05
2019-02-12T16:30:54.855Z,49.93
2019-02-12T16:33:24.590Z,49.79
2019-02-12T16:35:54.242Z,50.30
2019-02-12T16:38:24.015Z,50.38
2019-02-12T16:40:53.786Z,50.31
2019-02-12T16:43:23.615Z,50.11
2019-02-12T16:46:01.006Z,50.38
2019-02-12T16:48:30.429Z,50.20
2019-02-12T16:51:02.510Z,51.03
2019-02-12T16:53:32.135Z,51.55
2019-02-12T16:56:08.123Z,50.59
2019-02-12T16:58:32.964Z,50.88
2019-02-12T17:01:04.530Z,50.17
2019-02-12T17:03:34.017Z,50.17
2019-02-12T17:06:03.787Z,50.54
2019-02-12T17:08:34.848Z,50.20
2019-02-12T17:11:04.531Z,50.68
2019-02-12T17:13:34.342Z,50.99
2019-02-12T17:16:04.382Z,51.04
2019-02-12T17:18:34.136Z,50.60
2019-02-12T17:21:06.293Z,51.25
2019-02-12T17:23:35.975Z,51.24
2019-02-12T17:26:05.724Z,50.95
2019-02-12T17:28:35.517Z,50.11
2019-02-12T17:31:05.439Z,50.50
2019-02-12T17:33:34.819Z,50.84
2019-02-12T17:36:04.436Z,50.56
2019-02-12T17:38:33.994Z,50.84
2019-02-12T17:41:03.857Z,51.62
2019-02-12T17:43:33.757Z,50.19
2019-02-12T17:46:03.446Z,50.98
2019-02-12T17:48:32.953Z,51.30
2019-02-12T17:51:03.006Z,51.47
2019-02-12T17:53:32.834Z,51.39
2019-02-12T17:56:02.724Z,50.94
2019-02-12T17:58:32.750Z,51.36
2019-02-12T18:01:04.084Z,51.34
2019-02-12T18:03:33.577Z,51.13
2019-02-12T18:06:03.096Z,51.59
2019-02-12T18:08:32.788Z,51.32
2019-02-12T18:11:02.718Z,51.71
2019-02-12T18:13:32.664Z,51.90
2019-02-12T18:16:02.100Z,51.47
2019-02-12T18:18:33.091Z,52.06
2019-02-12T18:21:02.527Z,51.78
2019-02-12T18:23:32.136Z,51.67
2019-02-12T18:26:01.757Z,52.75
2019-02-12T18:28:31.285Z,51.46
2019-02-12T18:31:01.116Z,51.53
2019-02-12T18:33:30.857Z,51.61
2019-02-12T18:36:00.636Z,52.76
2019-02-12T18:38:30.242Z,52.88
2019-02-12T18:41:00.006Z,52.02
2019-02-12T18:43:29.766Z,52.46
2019-02-12T18:45:59.242Z,51.97
2019-02-12T18:48:30.013Z,52.13
2019-02-12T18:50:59.809Z,51.49
2019-02-12T18:53:29.507Z,51.78
2019-02-12T18:55:58.966Z,52.02
2019-02-12T18:58:28.969Z,52.05
2019-02-12T19:00:58.452Z,52.14
2019-02-12T19:03:28.253Z,52.14
2019-02-12T19:05:57.949Z,52.13
2019-02-12T19:08:28.464Z,52.90
2019-02-12T19:10:58.248Z,53.29
2019-02-12T19:13:29.707Z,52.48
2019-02-12T19:15:59.142Z,52.90
2019-02-12T19:18:29.066Z,52.82
2019-02-12T19:20:58.800Z,53.09
2019-02-12T19:23:28.607Z,52.82
2019-02-12T19:25:58.368Z,52.67
2019-02-12T19:28:28.302Z,52.42
2019-02-12T19:30:57.761Z,51.73
2019-02-12T19:33:27.370Z,53.00
2019-02-12T19:35:56.937Z,52.87
2019-02-12T19:38:26.665Z,52.84
2019-02-12T19:40:58.535Z,53.03
2019-02-12T19:43:30.461Z,52.69
2019-02-12T19:46:01.282Z,52.91
2019-02-12T19:48:30.915Z,53.28
2019-02-12T19:51:00.654Z,53.21
2019-02-12T19:53:30.185Z,53.10
2019-02-12T19:55:59.981Z,52.96
2019-02-12T19:58:29.452Z,53.14
2019-02-12T20:00:58.831Z,53.38
2019-02-12T20:03:29.284Z,53.46
2019-02-12T20:05:58.801Z,53.49
2019-02-12T20:08:28.848Z,53.07
2019-02-12T20:10:59.027Z,52.69
2019-02-12T20:13:28.830Z,52.53
2019-02-12T20:15:58.521Z,52.87
2019-02-12T20:18:29.246Z,53.54
2019-02-12T20:20:59.474Z,53.27
2019-02-12T20:23:29.177Z,53.44
2019-02-12T20:25:59.776Z,53.31
2019-02-12T20:28:29.208Z,52.50
2019-02-12T20:30:58.658Z,53.14
2019-02-12T20:33:28.519Z,53.03
2019-02-12T20:35:57.940Z,53.23
2019-02-12T20:38:27.528Z,53.44
2019-02-12T20:40:57.360Z,52.93
2019-02-12T20:43:27.032Z,53.49
2019-02-12T20:45:56.775Z,54.05
2019-02-12T20:48:26.394Z,53.88
2019-02-12T20:50:56.053Z,53.93
2019-02-12T20:53:25.962Z,53.95
2019-02-12T20:55:55.636Z,53.90
2019-02-12T20:58:25.120Z,54.67
2019-02-12T21:00:54.791Z,53.88
2019-02-12T21:03:24.368Z,53.95
2019-02-12T21:05:53.809Z,54.10
2019-02-12T21:08:23.581Z,54.79
2019-02-12T21:10:53.185Z,54.30
2019-02-12T21:13:22.747Z,54.71
2019-02-12T21:15:52.390Z,54.66
2019-02-12T21:18:22.045Z,54.14
2019-02-12T21:20:51.667Z,54.33
2019-02-12T21:23:21.523Z,54.00
2019-02-12T21:25:51.156Z,54.30
2019-02-12T21:28:20.743Z,54.34
2019-02-12T21:30:50.583Z,55.07
2019-02-12T21:33:20.442Z,54.55
2019-02-12T21:35:50.202Z,54.71
2019-02-12T21:38:20.584Z,54.64
2019-02-12T21:40:50.156Z,54.74
2019-02-12T21:43:19.642Z,54.75
2019-02-12T21:45:49.349Z,54.96
2019-02-12T21:48:18.740Z,55.49
2019-02-12T21:50:48.414Z,54.85
2019-02-12T21:53:18.111Z,54.95
2019-02-12T21:55:47.529Z,54.73
2019-02-12T21:58:17.171Z,54.94
2019-02-12T22:00:46.984Z,54.98
2019-02-12T22:03:16.497Z,55.07
2019-02-12T22:05:46.274Z,54.78
2019-02-12T22:08:15.945Z,55.05
2019-02-12T22:10:46.651Z,54.91
2019-02-12T22:13:16.147Z,55.11
2019-02-12T22:15:45.829Z,54.91
2019-02-12T22:18:15.586Z,54.77
2019-02-12T22:20:45.053Z,55.02
2019-02-12T22:23:14.547Z,54.95
2019-02-12T22:25:43.992Z,54.26
2019-02-12T22:28:13.495Z,54.54
2019-02-12T22:30:43.176Z,54.73
2019-02-12T22:33:12.799Z,54.43
2019-02-12T22:35:42.408Z,54.50
2019-02-12T22:38:12.010Z,54.90
2019-02-12T22:40:41.732Z,54.57
2019-02-12T22:43:11.436Z,54.06
2019-02-12T22:45:41.132Z,54.03
2019-02-12T22:48:10.883Z,54.71
2019-02-12T22:50:40.418Z,54.42
2019-02-12T22:53:10.175Z,54.45
2019-02-12T22:55:39.878Z,54.02
2019-02-12T22:58:09.458Z,53.95
2019-02-12T23:00:53.255Z,53.97
2019-02-12T23:03:23.615Z,53.94
2019-02-12T23:05:53.160Z,54.11
2019-02-12T23:08:22.735Z,54.27
2019-02-12T23:10:52.318Z,54.74
2019-02-12T23:13:22.408Z,53.84
2019-02-12T23:15:51.828Z,54.06
2019-02-12T23:18:21.558Z,53.93
2019-02-12T23:20:51.380Z,53.28
2019-02-12T23:23:20.789Z,53.47
2019-02-12T23:25:50.627Z,53.66
2019-02-12T23:28:20.356Z,53.06
2019-02-12T23:30:49.866Z,53.08
2019-02-12T23:33:19.437Z,52.83
2019-02-12T23:35:49.143Z,53.48
2019-02-12T23:38:18.823Z,53.47
2019-02-12T23:40:48.258Z,53.64
2019-02-12T23:43:17.636Z,53.54
2019-02-12T23:45:47.080Z,53.28
2019-02-12T23:48:16.824Z,52.89
2019-02-12T23:50:46.255Z,52.93
2019-02-12T23:53:15.888Z,53.33
2019-02-12T23:55:45.644Z,53.30
2019-02-12T23:58:15.240Z,53.99
